sensor_id;sensor_type;location;lat;lon;timestamp;temperature;humidity
15916;DHT22;8057;47.830;-3.870;2023-06-04T00:00:26;15.70;99.90
15916;DHT22;8057;47.830;-3.870;2023-06-04T00:04:35;15.70;99.90
15916;DHT22;8057;47.830;-3.870;2023-06-04T00:08:45;15.70;99.90
15916;DHT22;8057;47.830;-3.870;2023-06-04T00:12:54;15.60;99.90
15916;DHT22;8057;47.830;-3.870;2023-06-04T00:17:07;15.70;99.90
15916;DHT22;8057;47.830;-3.870;2023-06-04T00:21:18;15.70;99.90
15916;DHT22;8057;47.830;-3.870;2023-06-04T00:25:28;15.60;99.90
15916;DHT22;8057;47.830;-3.870;2023-06-04T00:29:38;15.70;99.90
15916;DHT22;8057;47.830;-3.870;2023-06-04T00:33:49;15.60;99.90
15916;DHT22;8057;47.830;-3.870;2023-06-04T00:37:59;15.50;99.90
15916;DHT22;8057;47.830;-3.870;2023-06-04T00:42:09;15.50;99.90
15916;DHT22;8057;47.830;-3.870;2023-06-04T00:46:19;15.50;99.90
15916;DHT22;8057;47.830;-3.870;2023-06-04T00:50:30;15.50;99.90
15916;DHT22;8057;47.830;-3.870;2023-06-04T00:54:41;15.40;99.90
15916;DHT22;8057;47.830;-3.870;2023-06-04T00:58:52;15.60;99.90
15916;DHT22;8057;47.830;-3.870;2023-06-04T01:03:05;15.50;99.90
15916;DHT22;8057;47.830;-3.870;2023-06-04T01:07:22;15.50;99.90
15916;DHT22;8057;47.830;-3.870;2023-06-04T01:11:33;15.50;99.90
15916;DHT22;8057;47.830;-3.870;2023-06-04T01:15:45;15.50;99.90
15916;DHT22;8057;47.830;-3.870;2023-06-04T01:20:18;15.50;99.90
15916;DHT22;8057;47.830;-3.870;2023-06-04T01:24:34;15.40;99.90
15916;DHT22;8057;47.830;-3.870;2023-06-04T01:28:46;15.40;99.90
15916;DHT22;8057;47.830;-3.870;2023-06-04T01:32:58;15.40;99.90
15916;DHT22;8057;47.830;-3.870;2023-06-04T01:37:10;15.30;99.90
15916;DHT22;8057;47.830;-3.870;2023-06-04T01:41:23;15.30;99.90
15916;DHT22;8057;47.830;-3.870;2023-06-04T01:45:34;15.30;99.90
15916;DHT22;8057;47.830;-3.870;2023-06-04T01:49:44;15.30;99.90
15916;DHT22;8057;47.830;-3.870;2023-06-04T01:53:54;15.30;99.90
15916;DHT22;8057;47.830;-3.870;2023-06-04T01:58:05;15.20;99.90
15916;DHT22;8057;47.830;-3.870;2023-06-04T02:02:16;15.10;99.90
15916;DHT22;8057;47.830;-3.870;2023-06-04T02:06:26;15.10;99.90
15916;DHT22;8057;47.830;-3.870;2023-06-04T02:10:39;15.10;99.90
15916;DHT22;8057;47.830;-3.870;2023-06-04T02:14:53;15.00;99.90
15916;DHT22;8057;47.830;-3.870;2023-06-04T02:19:05;15.10;99.90
15916;DHT22;8057;47.830;-3.870;2023-06-04T02:23:17;15.00;99.90
15916;DHT22;8057;47.830;-3.870;2023-06-04T02:27:27;14.90;99.90
15916;DHT22;8057;47.830;-3.870;2023-06-04T02:31:38;15.00;99.90
15916;DHT22;8057;47.830;-3.870;2023-06-04T02:35:49;14.90;99.90
15916;DHT22;8057;47.830;-3.870;2023-06-04T02:39:58;15.00;99.90
15916;DHT22;8057;47.830;-3.870;2023-06-04T02:44:07;14.90;99.90
15916;DHT22;8057;47.830;-3.870;2023-06-04T02:48:18;15.00;99.90
15916;DHT22;8057;47.830;-3.870;2023-06-04T02:52:28;14.90;99.90
15916;DHT22;8057;47.830;-3.870;2023-06-04T02:56:38;14.90;99.90
15916;DHT22;8057;47.830;-3.870;2023-06-04T03:00:48;14.90;99.90
15916;DHT22;8057;47.830;-3.870;2023-06-04T03:04:59;14.90;99.90
15916;DHT22;8057;47.830;-3.870;2023-06-04T03:09:10;14.90;99.90
15916;DHT22;8057;47.830;-3.870;2023-06-04T03:13:27;14.90;99.90
15916;DHT22;8057;47.830;-3.870;2023-06-04T03:17:37;14.80;99.90
15916;DHT22;8057;47.830;-3.870;2023-06-04T03:21:50;14.80;99.90
15916;DHT22;8057;47.830;-3.870;2023-06-04T03:26:00;14.80;99.90
15916;DHT22;8057;47.830;-3.870;2023-06-04T03:30:11;14.80;99.90
15916;DHT22;8057;47.830;-3.870;2023-06-04T03:34:22;14.70;99.90
15916;DHT22;8057;47.830;-3.870;2023-06-04T03:38:34;14.70;99.90
15916;DHT22;8057;47.830;-3.870;2023-06-04T03:42:45;14.70;99.90
15916;DHT22;8057;47.830;-3.870;2023-06-04T03:46:55;14.60;99.90
15916;DHT22;8057;47.830;-3.870;2023-06-04T03:51:04;14.60;99.90
15916;DHT22;8057;47.830;-3.870;2023-06-04T03:55:16;14.60;99.90
15916;DHT22;8057;47.830;-3.870;2023-06-04T03:59:26;14.60;99.90
15916;DHT22;8057;47.830;-3.870;2023-06-04T04:03:36;14.60;99.90
15916;DHT22;8057;47.830;-3.870;2023-06-04T04:07:47;14.60;99.90
15916;DHT22;8057;47.830;-3.870;2023-06-04T04:11:59;14.50;99.90
15916;DHT22;8057;47.830;-3.870;2023-06-04T04:16:08;14.50;99.90
15916;DHT22;8057;47.830;-3.870;2023-06-04T04:20:19;14.50;99.90
15916;DHT22;8057;47.830;-3.870;2023-06-04T04:24:28;14.50;99.90
15916;DHT22;8057;47.830;-3.870;2023-06-04T04:28:42;14.50;99.90
15916;DHT22;8057;47.830;-3.870;2023-06-04T04:32:51;14.50;99.90
15916;DHT22;8057;47.830;-3.870;2023-06-04T04:37:01;14.50;99.90
15916;DHT22;8057;47.830;-3.870;2023-06-04T04:41:11;14.40;99.90
15916;DHT22;8057;47.830;-3.870;2023-06-04T04:45:24;14.40;99.90
15916;DHT22;8057;47.830;-3.870;2023-06-04T04:49:40;14.40;99.90
15916;DHT22;8057;47.830;-3.870;2023-06-04T04:53:55;14.50;99.90
15916;DHT22;8057;47.830;-3.870;2023-06-04T04:58:06;14.50;99.90
15916;DHT22;8057;47.830;-3.870;2023-06-04T05:02:17;14.50;99.90
15916;DHT22;8057;47.830;-3.870;2023-06-04T05:06:29;14.60;99.90
15916;DHT22;8057;47.830;-3.870;2023-06-04T05:10:39;14.70;99.90
15916;DHT22;8057;47.830;-3.870;2023-06-04T05:14:48;14.80;99.90
15916;DHT22;8057;47.830;-3.870;2023-06-04T05:18:59;14.90;99.90
15916;DHT22;8057;47.830;-3.870;2023-06-04T05:23:10;14.90;99.90
15916;DHT22;8057;47.830;-3.870;2023-06-04T05:27:23;15.00;99.90
15916;DHT22;8057;47.830;-3.870;2023-06-04T05:31:33;15.20;99.90
15916;DHT22;8057;47.830;-3.870;2023-06-04T05:35:48;15.10;99.90
15916;DHT22;8057;47.830;-3.870;2023-06-04T05:39:59;15.20;99.90
15916;DHT22;8057;47.830;-3.870;2023-06-04T05:44:13;15.40;99.90
15916;DHT22;8057;47.830;-3.870;2023-06-04T05:48:23;15.40;99.90
15916;DHT22;8057;47.830;-3.870;2023-06-04T05:52:35;15.50;99.90
15916;DHT22;8057;47.830;-3.870;2023-06-04T05:56:47;15.60;99.90
15916;DHT22;8057;47.830;-3.870;2023-06-04T06:01:01;15.80;99.90
15916;DHT22;8057;47.830;-3.870;2023-06-04T06:05:11;15.90;99.90
15916;DHT22;8057;47.830;-3.870;2023-06-04T06:09:22;16.10;99.90
15916;DHT22;8057;47.830;-3.870;2023-06-04T06:13:31;16.20;99.90
15916;DHT22;8057;47.830;-3.870;2023-06-04T06:17:41;16.20;99.90
15916;DHT22;8057;47.830;-3.870;2023-06-04T06:21:54;16.30;99.90
15916;DHT22;8057;47.830;-3.870;2023-06-04T06:26:09;16.40;99.90
15916;DHT22;8057;47.830;-3.870;2023-06-04T06:30:19;16.60;99.90
15916;DHT22;8057;47.830;-3.870;2023-06-04T06:34:29;16.70;99.90
15916;DHT22;8057;47.830;-3.870;2023-06-04T06:38:39;16.80;99.90
15916;DHT22;8057;47.830;-3.870;2023-06-04T06:42:50;16.90;99.90
15916;DHT22;8057;47.830;-3.870;2023-06-04T06:47:00;17.00;99.90
15916;DHT22;8057;47.830;-3.870;2023-06-04T06:51:09;17.10;99.90
15916;DHT22;8057;47.830;-3.870;2023-06-04T06:55:20;17.20;99.90
15916;DHT22;8057;47.830;-3.870;2023-06-04T06:59:34;17.40;99.90
15916;DHT22;8057;47.830;-3.870;2023-06-04T07:03:45;17.50;99.90
15916;DHT22;8057;47.830;-3.870;2023-06-04T07:07:54;17.60;99.90
15916;DHT22;8057;47.830;-3.870;2023-06-04T07:12:06;17.70;99.90
15916;DHT22;8057;47.830;-3.870;2023-06-04T07:16:18;17.80;99.90
15916;DHT22;8057;47.830;-3.870;2023-06-04T07:20:28;17.90;99.90
15916;DHT22;8057;47.830;-3.870;2023-06-04T07:24:39;18.10;99.90
15916;DHT22;8057;47.830;-3.870;2023-06-04T07:28:52;18.10;99.90
15916;DHT22;8057;47.830;-3.870;2023-06-04T07:33:03;18.30;99.90
15916;DHT22;8057;47.830;-3.870;2023-06-04T07:37:15;18.40;99.90
15916;DHT22;8057;47.830;-3.870;2023-06-04T07:41:28;18.50;99.90
15916;DHT22;8057;47.830;-3.870;2023-06-04T07:45:39;18.60;99.90
15916;DHT22;8057;47.830;-3.870;2023-06-04T07:49:53;18.80;99.90
15916;DHT22;8057;47.830;-3.870;2023-06-04T07:54:10;18.90;99.90
15916;DHT22;8057;47.830;-3.870;2023-06-04T07:58:50;19.00;99.90
15916;DHT22;8057;47.830;-3.870;2023-06-04T11:47:58;28.00;99.90
15916;DHT22;8057;47.830;-3.870;2023-06-04T12:25:59;28.20;99.90
15916;DHT22;8057;47.830;-3.870;2023-06-04T12:30:12;28.20;99.90
15916;DHT22;8057;47.830;-3.870;2023-06-04T12:34:30;28.20;99.90
15916;DHT22;8057;47.830;-3.870;2023-06-04T12:48:51;28.60;99.90
15916;DHT22;8057;47.830;-3.870;2023-06-04T12:57:32;27.70;99.90
15916;DHT22;8057;47.830;-3.870;2023-06-04T13:02:16;27.70;99.90
15916;DHT22;8057;47.830;-3.870;2023-06-04T13:06:53;27.60;99.90
15916;DHT22;8057;47.830;-3.870;2023-06-04T13:15:40;27.90;99.90
15916;DHT22;8057;47.830;-3.870;2023-06-04T13:20:18;28.40;99.90
15916;DHT22;8057;47.830;-3.870;2023-06-04T13:35:09;28.20;99.90
15916;DHT22;8057;47.830;-3.870;2023-06-04T13:39:21;27.80;99.90
15916;DHT22;8057;47.830;-3.870;2023-06-04T14:06:58;27.40;99.90
15916;DHT22;8057;47.830;-3.870;2023-06-04T14:15:53;27.50;99.90
15916;DHT22;8057;47.830;-3.870;2023-06-04T14:20:04;27.70;99.90
15916;DHT22;8057;47.830;-3.870;2023-06-04T14:24:31;27.70;99.90
15916;DHT22;8057;47.830;-3.870;2023-06-04T14:28:40;27.70;99.90
15916;DHT22;8057;47.830;-3.870;2023-06-04T14:32:50;27.80;99.90
15916;DHT22;8057;47.830;-3.870;2023-06-04T14:37:02;27.90;99.90
15916;DHT22;8057;47.830;-3.870;2023-06-04T14:41:14;28.00;99.90
15916;DHT22;8057;47.830;-3.870;2023-06-04T14:45:24;28.20;99.90
15916;DHT22;8057;47.830;-3.870;2023-06-04T14:49:34;27.80;99.90
15916;DHT22;8057;47.830;-3.870;2023-06-04T14:53:44;27.60;99.90
15916;DHT22;8057;47.830;-3.870;2023-06-04T14:57:56;27.50;99.90
15916;DHT22;8057;47.830;-3.870;2023-06-04T15:02:05;27.40;99.90
15916;DHT22;8057;47.830;-3.870;2023-06-04T15:06:15;27.40;99.90
15916;DHT22;8057;47.830;-3.870;2023-06-04T15:10:34;27.10;99.90
15916;DHT22;8057;47.830;-3.870;2023-06-04T15:14:51;27.20;99.90
15916;DHT22;8057;47.830;-3.870;2023-06-04T15:19:12;27.00;99.90
15916;DHT22;8057;47.830;-3.870;2023-06-04T15:23:28;26.80;99.90
15916;DHT22;8057;47.830;-3.870;2023-06-04T15:27:39;27.00;99.90
15916;DHT22;8057;47.830;-3.870;2023-06-04T15:31:51;27.10;99.90
15916;DHT22;8057;47.830;-3.870;2023-06-04T15:36:11;27.00;99.90
15916;DHT22;8057;47.830;-3.870;2023-06-04T15:40:42;27.30;99.90
15916;DHT22;8057;47.830;-3.870;2023-06-04T15:44:54;27.30;99.90
15916;DHT22;8057;47.830;-3.870;2023-06-04T15:49:31;27.20;99.90
15916;DHT22;8057;47.830;-3.870;2023-06-04T15:53:41;27.10;99.90
15916;DHT22;8057;47.830;-3.870;2023-06-04T15:57:51;27.20;99.90
15916;DHT22;8057;47.830;-3.870;2023-06-04T16:02:00;27.10;99.90
15916;DHT22;8057;47.830;-3.870;2023-06-04T16:15:38;27.40;99.90
15916;DHT22;8057;47.830;-3.870;2023-06-04T16:20:24;27.20;99.90
15916;DHT22;8057;47.830;-3.870;2023-06-04T16:25:06;27.00;99.90
15916;DHT22;8057;47.830;-3.870;2023-06-04T16:29:43;26.90;99.90
15916;DHT22;8057;47.830;-3.870;2023-06-04T16:38:58;27.10;99.90
15916;DHT22;8057;47.830;-3.870;2023-06-04T16:48:16;27.00;99.90
15916;DHT22;8057;47.830;-3.870;2023-06-04T16:52:25;26.90;99.90
15916;DHT22;8057;47.830;-3.870;2023-06-04T16:56:56;27.00;99.90
15916;DHT22;8057;47.830;-3.870;2023-06-04T17:05:38;26.80;99.90
15916;DHT22;8057;47.830;-3.870;2023-06-04T17:10:30;26.80;99.90
15916;DHT22;8057;47.830;-3.870;2023-06-04T17:15:21;26.60;99.90
15916;DHT22;8057;47.830;-3.870;2023-06-04T17:20:01;26.50;99.90
15916;DHT22;8057;47.830;-3.870;2023-06-04T17:24:19;26.20;99.90
15916;DHT22;8057;47.830;-3.870;2023-06-04T17:28:43;26.00;99.90
15916;DHT22;8057;47.830;-3.870;2023-06-04T17:32:54;25.90;99.90
15916;DHT22;8057;47.830;-3.870;2023-06-04T17:37:04;25.80;99.90
15916;DHT22;8057;47.830;-3.870;2023-06-04T17:41:14;25.80;99.90
15916;DHT22;8057;47.830;-3.870;2023-06-04T17:45:24;25.60;99.90
15916;DHT22;8057;47.830;-3.870;2023-06-04T17:54:27;25.60;99.90
15916;DHT22;8057;47.830;-3.870;2023-06-04T18:16:25;24.90;99.90
15916;DHT22;8057;47.830;-3.870;2023-06-04T18:20:35;24.70;99.90
15916;DHT22;8057;47.830;-3.870;2023-06-04T18:24:44;24.80;99.90
15916;DHT22;8057;47.830;-3.870;2023-06-04T18:28:53;24.60;99.90
15916;DHT22;8057;47.830;-3.870;2023-06-04T18:33:04;24.40;99.90
15916;DHT22;8057;47.830;-3.870;2023-06-04T18:37:14;24.20;99.90
15916;DHT22;8057;47.830;-3.870;2023-06-04T18:41:23;24.00;99.90
15916;DHT22;8057;47.830;-3.870;2023-06-04T18:45:33;23.80;99.90
15916;DHT22;8057;47.830;-3.870;2023-06-04T18:49:44;23.70;99.90
15916;DHT22;8057;47.830;-3.870;2023-06-04T18:53:54;23.50;99.90
15916;DHT22;8057;47.830;-3.870;2023-06-04T18:58:03;23.30;99.90
15916;DHT22;8057;47.830;-3.870;2023-06-04T19:02:12;23.00;99.90
15916;DHT22;8057;47.830;-3.870;2023-06-04T19:06:23;22.90;99.90
